MSC Mara — V7NF9 — position and weather

sailwx.info

Track history (hours):
 
Tides and Currents Weather Stations Pressure Air Temp Water Temp Dewpoint Dewpoint Depression Visibility Wind Speed Wind Dir Waves Ship Positions

MSC Mara

Last reported at 2016-Jun-19 23:20 UTC. Time now 2016-Jun-28 13:25 UTC.
Position N 22°34' E 114°15'.
Warning: this ship's position is 8 days out of date.

Length 294 m; draft 9.6 m.

Type: Ship (hazmat cat C). MMSI: 538002955.

Date/timePositionNaut miles runAvg speedWind from/ knotsBaromVisibWave heightAir tempDewpointWater temp
2016-Jun-19 23:20N 22°34' E 114°15'0 0.0
2016-Jun-19 20:32N 22°34' E 114°15'0 0.0
2016-Jun-19 19:14N 22°34' E 114°15'0 0.0
2016-Jun-19 18:32N 22°34' E 114°15'0 0.0
2016-Jun-19 17:26N 22°34' E 114°15'0 0.0
2016-Jun-19 16:32N 22°34' E 114°15'0 0.0
2016-Jun-19 15:32N 22°34' E 114°15'0 0.0
2016-Jun-19 14:32N 22°34' E 114°15'16 1.0
2016-Jun-18 21:32N 22°20' E 114°08'0 0.0
2016-Jun-18 16:33N 22°20' E 114°08'0 0.0
2016-Jun-18 15:03N 22°20' E 114°08'0 0.0
2016-Jun-18 11:15N 22°20' E 114°08'0 0.0
2016-Jun-18 06:17N 22°20' E 114°08'0 0.0
2016-Jun-18 05:25N 22°20' E 114°08'3 2.9
2016-Jun-18 04:30N 22°17' E 114°06'32111.9
2016-Jun-17 01:29N 22°34' E 119°52'1010.5
2016-Jun-17 00:34N 22°33' E 120°03'1211.8
2016-Jun-16 23:34N 22°33' E 120°16'3 0.3
2016-Jun-16 11:29N 22°34' E 120°19'5 5.1
2016-Jun-16 10:33N 22°32' E 120°14'7 6.6
2016-Jun-16 09:33N 22°26' E 120°13'6 6.3
2016-Jun-16 08:33N 22°19' E 120°14'  
Track history (hours):
 
Tides and Currents Weather Stations Pressure Air Temp Water Temp Dewpoint Dewpoint Depression Visibility Wind Speed Wind Dir Waves Ship Positions

MSC Mara

Last reported at 2016-Jun-19 23:20 UTC. Time now 2016-Jun-28 13:25 UTC.
Position N 22°34' E 114°15'.
Warning: this ship's position is 8 days out of date.

Length 294 m; draft 9.6 m.

Type: Ship (hazmat cat C). MMSI: 538002955.

Date/timePositionNaut miles runAvg speedWind from/ knotsBaromVisibWave heightAir tempDewpointWater temp
2016-Jun-19 23:20N 22°34' E 114°15'0 0.0
2016-Jun-19 20:32N 22°34' E 114°15'0 0.0
2016-Jun-19 19:14N 22°34' E 114°15'0 0.0
2016-Jun-19 18:32N 22°34' E 114°15'0 0.0
2016-Jun-19 17:26N 22°34' E 114°15'0 0.0
2016-Jun-19 16:32N 22°34' E 114°15'0 0.0
2016-Jun-19 15:32N 22°34' E 114°15'0 0.0
2016-Jun-19 14:32N 22°34' E 114°15'16 1.0
2016-Jun-18 21:32N 22°20' E 114°08'0 0.0
2016-Jun-18 16:33N 22°20' E 114°08'0 0.0
2016-Jun-18 15:03N 22°20' E 114°08'0 0.0
2016-Jun-18 11:15N 22°20' E 114°08'0 0.0
2016-Jun-18 06:17N 22°20' E 114°08'0 0.0
2016-Jun-18 05:25N 22°20' E 114°08'3 2.9
2016-Jun-18 04:30N 22°17' E 114°06'32111.9
2016-Jun-17 01:29N 22°34' E 119°52'1010.5
2016-Jun-17 00:34N 22°33' E 120°03'1211.8
2016-Jun-16 23:34N 22°33' E 120°16'3 0.3
2016-Jun-16 11:29N 22°34' E 120°19'5 5.1
2016-Jun-16 10:33N 22°32' E 120°14'7 6.6
2016-Jun-16 09:33N 22°26' E 120°13'6 6.3
2016-Jun-16 08:33N 22°19' E 120°14'  

Dump ship's entire track history